Egan, Illinois
Current Conditions -  °F | °C
As of 12:55 AM on Monday 24 Nov 2014 (Local Time) from KFEP Reporting Station
Moderate Fog Moderate Fog  
Wind Chill: 42°   Ceiling: 400
Heat Index: 45°   Visibility: 0.5mi
Dew Point: 45°   Wind: 6mph
Humidity: 99%   Direction: 270°W
Pressure: 29.11"   Gusts: NA
Location:  42.1509°N, 89.4005°W
Report Text: KFEP 240655Z AUTO 27005KT 1/2SM FG OVC004 07/07 A2911 RMK AO2 LTG DSNT S T00710070
Loading
Personal Weather Stations






























Interactive Weather Map New forecast layout! Learn more

10-Day Weather Forecast

Advertisements
Track Severe Weather on mobile